createdAt,value
2018-04-18T00:00:12.848Z,11.26
2018-04-18T00:02:41.149Z,11.28
2018-04-18T00:05:09.480Z,11.36
2018-04-18T00:07:38.107Z,11.48
2018-04-18T00:10:06.425Z,11.48
2018-04-18T00:12:34.813Z,11.50
2018-04-18T00:15:03.122Z,11.37
2018-04-18T00:17:31.504Z,11.35
2018-04-18T00:19:59.878Z,11.18
2018-04-18T00:22:28.228Z,11.24
2018-04-18T00:24:56.572Z,11.25
2018-04-18T00:27:24.914Z,11.33
2018-04-18T00:29:53.257Z,11.24
2018-04-18T00:32:21.568Z,11.07
2018-04-18T00:34:49.985Z,11.14
2018-04-18T00:37:18.281Z,11.24
2018-04-18T00:39:46.644Z,11.21
2018-04-18T00:42:14.982Z,10.87
2018-04-18T00:44:43.294Z,10.71
2018-04-18T00:47:11.733Z,10.88
2018-04-18T00:49:40.049Z,11.02
2018-04-18T00:52:08.397Z,10.95
2018-04-18T00:54:36.701Z,10.97
2018-04-18T00:57:05.054Z,10.92
2018-04-18T00:59:33.421Z,10.64
2018-04-18T01:02:01.815Z,10.74
2018-04-18T01:04:30.182Z,10.83
2018-04-18T01:06:58.599Z,10.80
2018-04-18T01:09:26.945Z,10.60
2018-04-18T01:11:55.291Z,10.75
2018-04-18T01:14:23.596Z,10.56
2018-04-18T01:16:51.946Z,10.56
2018-04-18T01:19:20.264Z,10.63
2018-04-18T01:21:48.611Z,10.59
2018-04-18T01:24:16.907Z,10.61
2018-04-18T01:26:45.251Z,10.57
2018-04-18T01:29:13.660Z,10.52
2018-04-18T01:31:41.997Z,10.47
2018-04-18T01:34:10.505Z,10.37
2018-04-18T01:36:38.934Z,10.22
2018-04-18T01:39:07.241Z,10.33
2018-04-18T01:41:35.649Z,10.43
2018-04-18T01:44:03.964Z,10.46
2018-04-18T01:46:32.311Z,10.36
2018-04-18T01:49:12.435Z,10.42
2018-04-18T01:51:40.781Z,10.42
2018-04-18T01:54:09.118Z,10.31
2018-04-18T01:56:37.462Z,10.17
2018-04-18T01:59:05.770Z,9.98
2018-04-18T02:01:34.106Z,9.96
2018-04-18T02:04:02.422Z,10.12
2018-04-18T02:06:30.809Z,10.16
2018-04-18T02:08:59.105Z,10.19
2018-04-18T02:11:27.421Z,10.14
2018-04-18T02:13:55.828Z,10.25
2018-04-18T02:16:24.137Z,9.95
2018-04-18T02:18:52.482Z,9.69
2018-04-18T02:21:20.784Z,9.79
2018-04-18T02:23:49.125Z,9.82
2018-04-18T02:26:17.509Z,10.01
2018-04-18T02:28:45.839Z,9.95
2018-04-18T02:31:14.137Z,9.69
2018-04-18T02:33:42.473Z,9.62
2018-04-18T02:36:10.774Z,9.68
2018-04-18T02:38:39.265Z,9.71
2018-04-18T02:41:07.562Z,9.88
2018-04-18T02:43:36.004Z,9.79
2018-04-18T02:46:04.293Z,9.73
2018-04-18T02:48:32.621Z,9.64
2018-04-18T02:51:00.925Z,9.64
2018-04-18T02:53:29.273Z,9.53
2018-04-18T02:55:57.576Z,9.87
2018-04-18T02:58:26.021Z,9.97
2018-04-18T03:00:54.400Z,9.79
2018-04-18T03:03:22.710Z,9.29
2018-04-18T03:05:51.041Z,9.34
2018-04-18T03:08:19.362Z,9.23
2018-04-18T03:10:47.721Z,9.22
2018-04-18T03:13:16.033Z,9.22
2018-04-18T03:15:44.411Z,9.19
2018-04-18T03:18:12.737Z,9.29
2018-04-18T03:20:41.069Z,9.57
2018-04-18T03:23:09.373Z,9.53
2018-04-18T03:25:37.697Z,9.67
2018-04-18T03:28:06.001Z,9.72
2018-04-18T03:30:34.333Z,9.36
2018-04-18T03:33:02.642Z,9.26
2018-04-18T03:35:30.971Z,9.21
2018-04-18T03:38:00.170Z,9.18
2018-04-18T03:40:28.497Z,9.42
2018-04-18T03:42:56.797Z,9.47
2018-04-18T03:45:25.149Z,9.56
2018-04-18T03:47:53.453Z,9.54
2018-04-18T03:50:21.809Z,9.67
2018-04-18T03:52:50.246Z,9.68
2018-04-18T03:55:18.540Z,9.63
2018-04-18T03:57:46.857Z,9.59
2018-04-18T04:00:15.218Z,9.40
2018-04-18T04:02:43.525Z,9.41
2018-04-18T04:05:11.827Z,9.59
2018-04-18T04:07:40.149Z,9.61
2018-04-18T04:10:08.454Z,9.56
2018-04-18T04:12:36.867Z,9.50
2018-04-18T04:15:05.179Z,9.27
2018-04-18T04:17:42.182Z,9.36
2018-04-18T04:20:22.313Z,9.30
2018-04-18T04:23:02.593Z,9.37
2018-04-18T04:25:30.885Z,9.25
2018-04-18T04:27:59.212Z,9.33
2018-04-18T04:30:27.513Z,9.43
2018-04-18T04:32:55.848Z,9.37
2018-04-18T04:35:24.236Z,9.45
2018-04-18T04:37:52.549Z,9.48
2018-04-18T04:40:20.853Z,9.39
2018-04-18T04:42:49.248Z,9.21
2018-04-18T04:45:17.549Z,9.35
2018-04-18T04:47:45.948Z,9.39
2018-04-18T04:50:14.289Z,9.47
2018-04-18T04:52:42.844Z,9.46
2018-04-18T04:55:11.248Z,9.59
2018-04-18T04:57:39.576Z,9.48
2018-04-18T05:00:07.885Z,9.38
2018-04-18T05:02:36.245Z,9.40
2018-04-18T05:05:04.598Z,9.40
2018-04-18T05:07:32.918Z,9.57
2018-04-18T05:10:01.322Z,9.52
2018-04-18T05:12:29.694Z,9.52
2018-04-18T05:14:58.112Z,9.70
2018-04-18T05:17:26.450Z,9.65
2018-04-18T05:19:54.757Z,9.90
2018-04-18T05:22:23.109Z,9.82
2018-04-18T05:24:51.471Z,9.91
2018-04-18T05:27:19.861Z,9.95
2018-04-18T05:29:48.182Z,9.94
2018-04-18T05:32:16.497Z,10.02
2018-04-18T05:34:44.824Z,10.14
2018-04-18T05:37:13.135Z,10.33
2018-04-18T05:39:41.572Z,10.44
2018-04-18T05:42:09.924Z,10.54
2018-04-18T05:44:38.306Z,10.67
2018-04-18T05:47:06.723Z,10.66
2018-04-18T05:49:35.041Z,10.70
2018-04-18T05:52:03.433Z,10.79
2018-04-18T05:54:31.816Z,10.89
2018-04-18T05:57:00.192Z,11.10
2018-04-18T05:59:28.566Z,11.22
2018-04-18T06:01:56.992Z,11.27
2018-04-18T06:04:25.317Z,11.41
2018-04-18T06:06:53.777Z,11.46
2018-04-18T06:09:22.209Z,11.56
2018-04-18T06:11:50.517Z,11.68
2018-04-18T06:14:18.941Z,11.77
2018-04-18T06:16:47.251Z,11.88
2018-04-18T06:19:15.605Z,11.98
2018-04-18T06:21:43.893Z,12.10
2018-04-18T06:24:12.249Z,12.26
2018-04-18T06:26:40.571Z,12.33
2018-04-18T06:29:08.908Z,12.48
2018-04-18T06:31:37.292Z,12.61
2018-04-18T06:34:05.607Z,12.70
2018-04-18T06:36:33.970Z,12.76
2018-04-18T06:39:02.349Z,12.89
2018-04-18T06:41:30.684Z,13.00
2018-04-18T06:43:59.045Z,13.03
2018-04-18T06:46:27.388Z,13.10
2018-04-18T06:48:55.771Z,13.18
2018-04-18T06:51:24.110Z,13.29
2018-04-18T06:53:52.835Z,13.37
2018-04-18T06:56:21.161Z,13.56
2018-04-18T06:58:49.497Z,13.64
2018-04-18T07:01:17.829Z,13.76
2018-04-18T07:03:46.137Z,13.84
2018-04-18T07:06:14.474Z,13.93
2018-04-18T07:08:42.787Z,13.99
2018-04-18T07:11:11.182Z,14.10
2018-04-18T07:13:39.454Z,14.16
2018-04-18T07:16:07.785Z,14.32
2018-04-18T07:18:36.122Z,14.47
2018-04-18T07:21:04.468Z,14.52
2018-04-18T07:23:32.833Z,14.56
2018-04-18T07:26:01.243Z,14.61
2018-04-18T07:28:29.582Z,14.77
2018-04-18T07:30:57.973Z,14.85
2018-04-18T07:33:26.346Z,14.92
2018-04-18T07:35:54.668Z,14.98
2018-04-18T07:38:22.997Z,15.20
2018-04-18T07:40:51.377Z,15.20
2018-04-18T07:43:19.754Z,15.25
2018-04-18T07:45:48.069Z,15.37
2018-04-18T07:48:16.401Z,15.55
2018-04-18T07:50:44.785Z,15.68
2018-04-18T07:53:13.121Z,15.81
2018-04-18T07:55:41.434Z,15.80
2018-04-18T07:58:09.774Z,15.66
2018-04-18T08:00:38.093Z,15.85
2018-04-18T08:03:06.468Z,16.06
2018-04-18T08:05:34.768Z,16.26
2018-04-18T08:08:03.125Z,16.29
2018-04-18T08:10:31.433Z,16.36
2018-04-18T08:12:59.737Z,16.70
2018-04-18T08:15:28.220Z,16.55
2018-04-18T08:17:56.524Z,16.53
2018-04-18T08:20:24.872Z,16.90
2018-04-18T08:22:53.173Z,16.97
2018-04-18T08:25:21.518Z,17.10
2018-04-18T08:27:57.827Z,17.19
2018-04-18T08:30:26.205Z,17.24
2018-04-18T08:32:54.589Z,17.23
2018-04-18T08:35:22.921Z,16.89
2018-04-18T08:37:51.232Z,16.91
2018-04-18T08:40:19.584Z,17.25
2018-04-18T08:42:48.498Z,17.58
2018-04-18T08:45:16.845Z,17.64
2018-04-18T08:47:45.154Z,17.84
2018-04-18T08:50:13.493Z,17.83
2018-04-18T08:52:41.794Z,17.98
2018-04-18T08:55:10.145Z,18.17
2018-04-18T08:57:38.481Z,18.36
2018-04-18T09:00:06.801Z,18.07
2018-04-18T09:02:35.130Z,18.53
2018-04-18T09:05:03.454Z,18.03
2018-04-18T09:07:31.775Z,18.00
2018-04-18T09:10:00.086Z,18.01
2018-04-18T09:12:28.475Z,18.18
2018-04-18T09:14:56.777Z,18.24
2018-04-18T09:17:25.109Z,18.03
2018-04-18T09:19:53.462Z,18.20
2018-04-18T09:22:21.801Z,18.29
2018-04-18T09:24:50.113Z,18.39
2018-04-18T09:27:18.452Z,18.59
2018-04-18T09:29:46.768Z,18.57
2018-04-18T09:32:15.100Z,18.49
2018-04-18T09:34:43.425Z,18.87
2018-04-18T09:37:11.766Z,19.48
2018-04-18T09:39:40.119Z,19.30
2018-04-18T09:42:08.436Z,19.61
2018-04-18T09:44:36.776Z,19.69
2018-04-18T09:47:05.117Z,19.49
2018-04-18T09:49:33.456Z,19.49
2018-04-18T09:52:01.772Z,18.78
2018-04-18T09:54:30.093Z,19.11
2018-04-18T09:56:58.429Z,19.15
2018-04-18T09:59:26.769Z,19.30
2018-04-18T10:01:55.081Z,19.13
2018-04-18T10:04:29.357Z,19.42
2018-04-18T10:06:57.670Z,19.58
2018-04-18T10:09:26.009Z,19.34
2018-04-18T10:11:54.317Z,19.15
2018-04-18T10:14:22.661Z,19.32
2018-04-18T10:16:50.985Z,19.57
2018-04-18T10:19:19.357Z,19.48
2018-04-18T10:21:47.661Z,19.82
2018-04-18T10:24:15.997Z,20.08
2018-04-18T10:26:44.306Z,20.54
2018-04-18T10:29:12.656Z,20.49
2018-04-18T10:31:41.001Z,20.43
2018-04-18T10:34:09.465Z,20.08
2018-04-18T10:36:37.776Z,19.87
2018-04-18T10:39:06.879Z,20.79
2018-04-18T10:41:35.200Z,20.40
2018-04-18T10:44:03.521Z,20.32
2018-04-18T10:46:31.852Z,20.40
2018-04-18T10:49:00.180Z,20.33
2018-04-18T10:51:28.510Z,20.96
2018-04-18T10:53:56.897Z,20.79
2018-04-18T10:56:25.237Z,21.36
2018-04-18T10:58:53.658Z,21.13
2018-04-18T11:01:22.010Z,21.67
2018-04-18T11:03:50.369Z,21.09
2018-04-18T11:06:18.717Z,21.01
2018-04-18T11:08:47.067Z,20.91
2018-04-18T11:11:15.383Z,21.00
2018-04-18T11:13:44.461Z,21.75
2018-04-18T11:16:12.799Z,22.08
2018-04-18T11:18:41.144Z,22.72
2018-04-18T11:21:09.441Z,23.04
2018-04-18T11:23:37.761Z,22.61
2018-04-18T11:26:06.103Z,22.18
2018-04-18T11:28:34.465Z,22.42
2018-04-18T11:31:02.823Z,23.13
2018-04-18T11:33:31.136Z,23.44
2018-04-18T11:35:59.468Z,23.70
2018-04-18T11:38:27.880Z,23.02
2018-04-18T11:40:56.274Z,23.86
2018-04-18T11:43:24.577Z,23.68
2018-04-18T11:45:52.912Z,23.74
2018-04-18T11:48:21.226Z,23.60
2018-04-18T11:50:49.707Z,24.12
2018-04-18T11:53:18.001Z,24.19
2018-04-18T11:55:46.345Z,24.50
2018-04-18T11:58:14.694Z,24.38
2018-04-18T12:00:43.014Z,24.93
2018-04-18T12:03:11.496Z,25.39
2018-04-18T12:05:39.793Z,25.27
2018-04-18T12:08:08.222Z,26.62
2018-04-18T12:10:36.593Z,27.00
2018-04-18T12:13:04.936Z,27.71
2018-04-18T12:15:33.240Z,27.40
2018-04-18T12:18:01.577Z,26.85
2018-04-18T12:20:29.902Z,27.05
2018-04-18T12:22:58.230Z,26.91
2018-04-18T12:25:26.549Z,27.40
2018-04-18T12:27:54.929Z,28.19
2018-04-18T12:30:23.306Z,28.33
2018-04-18T12:32:51.687Z,27.92
2018-04-18T12:35:19.998Z,26.70
2018-04-18T12:37:48.382Z,27.61
2018-04-18T12:40:16.864Z,27.80
2018-04-18T12:42:45.300Z,28.07
2018-04-18T12:45:13.625Z,27.40
2018-04-18T12:47:41.998Z,26.49
2018-04-18T12:50:10.375Z,27.00
2018-04-18T12:52:38.775Z,27.76
2018-04-18T12:55:07.073Z,28.25
2018-04-18T12:57:35.536Z,27.83
2018-04-18T13:00:03.806Z,28.20
2018-04-18T13:02:32.125Z,27.33
2018-04-18T13:05:00.464Z,28.51
2018-04-18T13:07:28.767Z,28.81
2018-04-18T13:09:57.154Z,27.88
2018-04-18T13:12:25.495Z,28.18
2018-04-18T13:14:53.826Z,28.12
2018-04-18T13:17:22.136Z,28.94
2018-04-18T13:19:50.540Z,28.72
2018-04-18T13:22:19.004Z,28.91
2018-04-18T13:27:10.442Z,29.38
2018-04-18T13:29:38.903Z,28.47
2018-04-18T13:32:07.225Z,28.59
2018-04-18T13:34:35.552Z,29.13
2018-04-18T13:37:03.876Z,29.46
2018-04-18T13:39:32.308Z,27.97
2018-04-18T13:42:00.631Z,28.06
2018-04-18T13:44:29.027Z,28.04
2018-04-18T13:46:57.418Z,28.72
2018-04-18T13:49:25.798Z,27.80
2018-04-18T13:51:54.172Z,27.88
2018-04-18T13:54:22.505Z,28.75
2018-04-18T13:56:50.873Z,29.36
2018-04-18T13:59:19.261Z,29.04
2018-04-18T14:01:47.673Z,29.15
2018-04-18T14:04:16.060Z,29.71
2018-04-18T14:06:44.432Z,29.04
2018-04-18T14:09:12.766Z,29.70
2018-04-18T14:11:41.189Z,30.57
2018-04-18T14:14:09.557Z,30.38
2018-04-18T14:16:37.899Z,30.36
2018-04-18T14:19:06.261Z,29.67
2018-04-18T14:21:34.593Z,29.63
2018-04-18T14:24:02.914Z,29.73
2018-04-18T14:26:31.258Z,30.22
2018-04-18T14:28:59.559Z,30.21
2018-04-18T14:31:27.906Z,30.28
2018-04-18T14:33:56.226Z,30.04
2018-04-18T14:36:24.570Z,30.69
2018-04-18T14:38:52.884Z,30.10
2018-04-18T14:41:21.221Z,30.32
2018-04-18T14:43:49.557Z,29.92
2018-04-18T14:46:17.869Z,29.70
2018-04-18T14:48:46.248Z,30.36
2018-04-18T14:51:14.670Z,30.32
2018-04-18T14:53:43.002Z,30.33
2018-04-18T14:56:11.388Z,29.09
2018-04-18T14:58:39.758Z,30.25
2018-04-18T15:01:08.155Z,30.70
2018-04-18T15:03:36.471Z,31.03
2018-04-18T15:06:04.797Z,30.55
2018-04-18T15:08:33.134Z,30.79
2018-04-18T15:11:01.457Z,31.13
2018-04-18T15:13:29.792Z,31.52
2018-04-18T15:15:58.110Z,31.36
2018-04-18T15:18:26.433Z,29.90
2018-04-18T15:20:54.805Z,29.34
2018-04-18T15:23:23.154Z,30.76
2018-04-18T15:25:51.485Z,31.62
2018-04-18T15:28:19.913Z,31.94
2018-04-18T15:30:48.162Z,30.82
2018-04-18T15:33:16.544Z,30.52
2018-04-18T15:35:44.882Z,30.47
2018-04-18T15:38:13.195Z,32.03
2018-04-18T15:40:41.537Z,29.54
2018-04-18T15:43:10.003Z,30.33
2018-04-18T15:45:38.325Z,30.92
2018-04-18T15:48:06.734Z,30.16
2018-04-18T15:50:35.093Z,30.09
2018-04-18T15:53:03.429Z,29.98
2018-04-18T15:55:31.762Z,29.55
2018-04-18T15:58:00.172Z,31.06
2018-04-18T16:00:28.648Z,31.43
2018-04-18T16:02:56.945Z,31.81
2018-04-18T16:05:25.296Z,30.84
2018-04-18T16:07:53.673Z,31.11
2018-04-18T16:10:22.010Z,30.87
2018-04-18T16:12:50.444Z,30.58
2018-04-18T16:15:18.819Z,30.23
2018-04-18T16:17:47.173Z,30.11
2018-04-18T16:20:15.506Z,29.12
2018-04-18T16:22:43.848Z,30.04
2018-04-18T16:25:12.164Z,29.73
2018-04-18T16:27:40.566Z,29.10
2018-04-18T16:33:13.824Z,29.66
2018-04-18T16:35:42.141Z,30.18
2018-04-18T16:38:10.521Z,29.61
2018-04-18T16:40:38.845Z,29.58
2018-04-18T16:43:07.339Z,28.92
2018-04-18T16:45:35.728Z,29.09
2018-04-18T16:48:04.073Z,28.62
2018-04-18T16:50:32.429Z,28.95
2018-04-18T16:53:00.781Z,27.80
2018-04-18T16:55:29.109Z,26.90
2018-04-18T16:57:57.455Z,26.34
2018-04-18T17:00:25.793Z,25.81
2018-04-18T17:02:54.137Z,25.26
2018-04-18T17:05:22.459Z,24.11
2018-04-18T17:07:50.914Z,23.48
2018-04-18T17:10:19.249Z,22.75
2018-04-18T17:12:47.701Z,22.52
2018-04-18T17:15:16.040Z,22.59
2018-04-18T17:17:44.358Z,22.13
2018-04-18T17:20:12.769Z,22.09
2018-04-18T17:22:41.281Z,22.15
2018-04-18T17:25:09.653Z,21.75
2018-04-18T17:27:37.953Z,21.75
2018-04-18T17:30:06.381Z,21.72
2018-04-18T17:32:34.769Z,21.69
2018-04-18T17:35:03.104Z,21.53
2018-04-18T17:37:31.448Z,21.19
2018-04-18T17:39:59.808Z,20.94
2018-04-18T17:42:28.140Z,21.01
2018-04-18T17:44:56.500Z,20.91
2018-04-18T17:47:24.923Z,20.95
2018-04-18T17:49:53.313Z,20.79
2018-04-18T17:52:21.680Z,20.68
2018-04-18T17:54:50.095Z,20.45
2018-04-18T17:57:18.396Z,20.37
2018-04-18T17:59:46.820Z,20.49
2018-04-18T18:02:15.191Z,20.20
2018-04-18T18:04:43.586Z,19.95
2018-04-18T18:07:11.917Z,20.02
2018-04-18T18:09:40.260Z,19.89
2018-04-18T18:12:08.612Z,19.80
2018-04-18T18:14:36.960Z,19.69
2018-04-18T18:17:05.305Z,19.66
2018-04-18T18:19:33.642Z,19.56
2018-04-18T18:22:01.964Z,19.50
2018-04-18T18:24:30.336Z,19.22
2018-04-18T18:26:58.659Z,19.26
2018-04-18T18:29:27.050Z,19.14
2018-04-18T18:31:55.401Z,19.08
2018-04-18T18:34:23.770Z,19.14
2018-04-18T18:36:52.171Z,19.05
2018-04-18T18:39:20.501Z,19.02
2018-04-18T18:41:48.889Z,18.97
2018-04-18T18:44:17.208Z,18.82
2018-04-18T18:46:45.581Z,18.81
2018-04-18T18:49:13.980Z,18.68
2018-04-18T18:51:42.337Z,18.69
2018-04-18T18:54:10.673Z,18.53
2018-04-18T18:56:39.013Z,18.51
2018-04-18T18:59:07.336Z,18.31
2018-04-18T19:01:35.748Z,18.44
2018-04-18T19:04:04.089Z,18.25
2018-04-18T19:06:32.513Z,18.19
2018-04-18T19:09:00.827Z,18.05
2018-04-18T19:11:29.265Z,18.02
2018-04-18T19:13:57.648Z,17.97
2018-04-18T19:16:26.000Z,18.01
2018-04-18T19:18:54.390Z,18.07
2018-04-18T19:21:22.790Z,17.95
2018-04-18T19:23:51.163Z,17.93
2018-04-18T19:26:19.542Z,17.87
2018-04-18T19:28:47.914Z,17.89
2018-04-18T19:31:16.245Z,17.81
2018-04-18T19:33:44.601Z,17.68
2018-04-18T19:36:12.909Z,17.73
2018-04-18T19:38:41.256Z,17.60
2018-04-18T19:41:09.587Z,17.50
2018-04-18T19:43:37.961Z,17.43
2018-04-18T19:46:06.289Z,17.39
2018-04-18T19:48:34.629Z,17.31
2018-04-18T19:51:02.957Z,17.25
2018-04-18T19:53:31.306Z,17.01
2018-04-18T19:55:59.647Z,17.04
2018-04-18T19:58:27.990Z,16.93
2018-04-18T20:00:56.309Z,16.97
2018-04-18T20:03:24.649Z,16.89
2018-04-18T20:05:53.124Z,16.83
2018-04-18T20:08:21.470Z,16.86
2018-04-18T20:10:49.794Z,16.91
2018-04-18T20:13:18.186Z,16.98
2018-04-18T20:15:46.509Z,17.18
2018-04-18T20:18:14.824Z,17.11
2018-04-18T20:20:43.210Z,17.28
2018-04-18T20:23:11.633Z,17.38
2018-04-18T20:25:39.991Z,17.10
2018-04-18T20:28:08.325Z,16.97
2018-04-18T20:30:36.730Z,17.01
2018-04-18T20:33:05.136Z,16.72
2018-04-18T20:35:33.481Z,16.74
2018-04-18T20:38:01.852Z,16.81
2018-04-18T20:40:30.191Z,16.79
2018-04-18T20:42:58.514Z,16.73
2018-04-18T20:45:26.925Z,16.72
2018-04-18T20:47:55.237Z,16.73
2018-04-18T20:50:23.585Z,16.64
2018-04-18T20:52:51.929Z,16.53
2018-04-18T20:55:20.285Z,16.62
2018-04-18T20:57:48.609Z,16.45
2018-04-18T21:00:16.996Z,16.42
2018-04-18T21:02:45.316Z,16.21
2018-04-18T21:05:13.654Z,16.25
2018-04-18T21:07:41.970Z,16.27
2018-04-18T21:10:10.313Z,16.36
2018-04-18T21:12:38.686Z,16.35
2018-04-18T21:15:07.005Z,16.30
2018-04-18T21:17:35.394Z,16.14
2018-04-18T21:20:03.718Z,15.95
2018-04-18T21:22:32.061Z,15.80
2018-04-18T21:25:00.365Z,15.72
2018-04-18T21:27:28.793Z,15.70
2018-04-18T21:29:57.090Z,15.68
2018-04-18T21:32:25.454Z,15.66
2018-04-18T21:34:53.757Z,15.76
2018-04-18T21:37:22.113Z,15.73
2018-04-18T21:39:50.451Z,15.63
2018-04-18T21:42:18.789Z,15.57
2018-04-18T21:44:47.109Z,15.40
2018-04-18T21:47:15.488Z,15.40
2018-04-18T21:49:43.800Z,15.37
2018-04-18T21:52:12.130Z,15.35
2018-04-18T21:54:40.502Z,15.09
2018-04-18T21:57:08.829Z,14.99
2018-04-18T21:59:37.206Z,14.86
2018-04-18T22:02:05.550Z,14.86
2018-04-18T22:04:33.901Z,14.98
2018-04-18T22:07:02.289Z,15.10
2018-04-18T22:09:30.625Z,15.13
2018-04-18T22:11:58.944Z,14.89
2018-04-18T22:14:27.325Z,14.74
2018-04-18T22:16:55.759Z,14.70
2018-04-18T22:19:24.097Z,14.71
2018-04-18T22:21:52.430Z,14.72
2018-04-18T22:24:20.769Z,14.86
2018-04-18T22:26:49.113Z,14.69
2018-04-18T22:29:17.515Z,14.78
2018-04-18T22:31:45.860Z,14.65
2018-04-18T22:34:14.236Z,14.58
2018-04-18T22:36:42.563Z,14.41
2018-04-18T22:39:10.906Z,14.50
2018-04-18T22:41:39.225Z,14.25
2018-04-18T22:44:07.562Z,14.14
2018-04-18T22:46:35.877Z,13.93
2018-04-18T22:49:04.306Z,13.86
2018-04-18T22:51:32.625Z,13.80
2018-04-18T22:54:00.966Z,13.70
2018-04-18T22:56:29.338Z,13.88
2018-04-18T22:58:57.699Z,13.95
2018-04-18T23:01:26.022Z,14.07
2018-04-18T23:03:54.417Z,14.10
2018-04-18T23:06:22.753Z,13.81
2018-04-18T23:08:51.078Z,13.92
2018-04-18T23:11:19.413Z,14.07
2018-04-18T23:13:47.790Z,13.73
2018-04-18T23:16:16.122Z,13.70
2018-04-18T23:18:44.439Z,13.81
2018-04-18T23:21:12.785Z,13.91
2018-04-18T23:23:41.198Z,13.76
2018-04-18T23:26:09.541Z,13.79
2018-04-18T23:28:37.869Z,13.55
2018-04-18T23:31:06.232Z,13.45
2018-04-18T23:33:34.540Z,13.54
2018-04-18T23:36:02.888Z,13.59
2018-04-18T23:38:31.213Z,13.68
2018-04-18T23:40:59.541Z,13.57
2018-04-18T23:43:27.913Z,13.45
2018-04-18T23:45:56.241Z,13.61
2018-04-18T23:48:24.581Z,13.43
2018-04-18T23:50:52.913Z,13.39
2018-04-18T23:53:21.337Z,13.43
2018-04-18T23:55:49.655Z,13.46
2018-04-18T23:58:18.001Z,13.50
